sensor_id;sensor_type;location;lat;lon;timestamp;P1;durP1;ratioP1;P2;durP2;ratioP2
62580;SDS011;48640;48.770;9.148;2023-07-22T00:00:32;3.40;;;1.80;;
62580;SDS011;48640;48.770;9.148;2023-07-22T00:02:58;3.80;;;2.45;;
62580;SDS011;48640;48.770;9.148;2023-07-22T00:05:25;3.63;;;2.17;;
62580;SDS011;48640;48.770;9.148;2023-07-22T00:07:52;4.53;;;2.38;;
62580;SDS011;48640;48.770;9.148;2023-07-22T00:10:19;4.07;;;2.00;;
62580;SDS011;48640;48.770;9.148;2023-07-22T00:12:45;3.65;;;2.10;;
62580;SDS011;48640;48.770;9.148;2023-07-22T00:15:14;4.55;;;2.22;;
62580;SDS011;48640;48.770;9.148;2023-07-22T00:17:40;8.20;;;2.58;;
62580;SDS011;48640;48.770;9.148;2023-07-22T00:20:09;3.50;;;2.08;;
62580;SDS011;48640;48.770;9.148;2023-07-22T00:22:36;5.35;;;2.53;;
62580;SDS011;48640;48.770;9.148;2023-07-22T00:25:05;3.17;;;2.08;;
62580;SDS011;48640;48.770;9.148;2023-07-22T00:27:32;3.45;;;2.08;;
62580;SDS011;48640;48.770;9.148;2023-07-22T00:29:59;3.50;;;2.00;;
62580;SDS011;48640;48.770;9.148;2023-07-22T00:32:27;3.58;;;2.58;;
62580;SDS011;48640;48.770;9.148;2023-07-22T00:34:54;3.65;;;2.20;;
62580;SDS011;48640;48.770;9.148;2023-07-22T00:37:21;2.95;;;2.05;;
62580;SDS011;48640;48.770;9.148;2023-07-22T00:39:48;3.85;;;2.05;;
62580;SDS011;48640;48.770;9.148;2023-07-22T00:42:15;3.60;;;2.10;;
62580;SDS011;48640;48.770;9.148;2023-07-22T00:44:42;3.30;;;2.13;;
62580;SDS011;48640;48.770;9.148;2023-07-22T00:47:09;5.32;;;2.80;;
62580;SDS011;48640;48.770;9.148;2023-07-22T00:49:37;4.28;;;1.92;;
62580;SDS011;48640;48.770;9.148;2023-07-22T00:52:04;5.25;;;2.70;;
62580;SDS011;48640;48.770;9.148;2023-07-22T00:54:31;4.55;;;2.30;;
62580;SDS011;48640;48.770;9.148;2023-07-22T00:56:58;5.55;;;2.90;;
62580;SDS011;48640;48.770;9.148;2023-07-22T00:59:25;5.15;;;2.80;;
62580;SDS011;48640;48.770;9.148;2023-07-22T01:01:52;3.97;;;2.28;;
62580;SDS011;48640;48.770;9.148;2023-07-22T01:04:19;5.55;;;2.58;;
62580;SDS011;48640;48.770;9.148;2023-07-22T01:06:48;3.25;;;2.20;;
62580;SDS011;48640;48.770;9.148;2023-07-22T01:09:18;3.67;;;2.50;;
62580;SDS011;48640;48.770;9.148;2023-07-22T01:11:44;4.15;;;2.20;;
62580;SDS011;48640;48.770;9.148;2023-07-22T01:14:11;4.20;;;2.33;;
62580;SDS011;48640;48.770;9.148;2023-07-22T01:16:38;5.20;;;2.38;;
62580;SDS011;48640;48.770;9.148;2023-07-22T01:19:05;4.85;;;2.72;;
62580;SDS011;48640;48.770;9.148;2023-07-22T01:21:33;4.55;;;2.67;;
62580;SDS011;48640;48.770;9.148;2023-07-22T01:24:02;4.30;;;2.55;;
62580;SDS011;48640;48.770;9.148;2023-07-22T01:26:29;5.50;;;2.65;;
62580;SDS011;48640;48.770;9.148;2023-07-22T01:29:05;4.80;;;2.40;;
62580;SDS011;48640;48.770;9.148;2023-07-22T01:31:33;4.28;;;2.55;;
62580;SDS011;48640;48.770;9.148;2023-07-22T01:34:01;4.75;;;2.45;;
62580;SDS011;48640;48.770;9.148;2023-07-22T01:36:29;3.95;;;2.42;;
62580;SDS011;48640;48.770;9.148;2023-07-22T01:38:55;4.60;;;2.58;;
62580;SDS011;48640;48.770;9.148;2023-07-22T01:41:24;5.35;;;2.60;;
62580;SDS011;48640;48.770;9.148;2023-07-22T01:43:50;3.95;;;2.50;;
62580;SDS011;48640;48.770;9.148;2023-07-22T01:46:17;4.47;;;2.70;;
62580;SDS011;48640;48.770;9.148;2023-07-22T01:48:44;3.90;;;2.30;;
62580;SDS011;48640;48.770;9.148;2023-07-22T01:51:11;4.45;;;2.38;;
62580;SDS011;48640;48.770;9.148;2023-07-22T01:53:38;4.90;;;2.58;;
62580;SDS011;48640;48.770;9.148;2023-07-22T01:56:04;3.65;;;2.03;;
62580;SDS011;48640;48.770;9.148;2023-07-22T01:58:33;2.85;;;1.98;;
62580;SDS011;48640;48.770;9.148;2023-07-22T02:01:00;4.20;;;2.40;;
62580;SDS011;48640;48.770;9.148;2023-07-22T02:03:27;3.72;;;2.20;;
62580;SDS011;48640;48.770;9.148;2023-07-22T02:06:00;3.78;;;2.35;;
62580;SDS011;48640;48.770;9.148;2023-07-22T02:08:27;3.90;;;2.15;;
62580;SDS011;48640;48.770;9.148;2023-07-22T02:10:54;4.47;;;2.10;;
62580;SDS011;48640;48.770;9.148;2023-07-22T02:13:24;4.25;;;2.53;;
62580;SDS011;48640;48.770;9.148;2023-07-22T02:15:52;3.35;;;2.20;;
62580;SDS011;48640;48.770;9.148;2023-07-22T02:18:19;4.32;;;2.33;;
62580;SDS011;48640;48.770;9.148;2023-07-22T02:20:46;4.97;;;2.60;;
62580;SDS011;48640;48.770;9.148;2023-07-22T02:23:13;3.92;;;2.47;;
62580;SDS011;48640;48.770;9.148;2023-07-22T02:25:40;5.60;;;2.45;;
62580;SDS011;48640;48.770;9.148;2023-07-22T02:28:07;4.68;;;2.25;;
62580;SDS011;48640;48.770;9.148;2023-07-22T02:30:33;5.05;;;2.70;;
62580;SDS011;48640;48.770;9.148;2023-07-22T02:33:02;3.47;;;1.70;;
62580;SDS011;48640;48.770;9.148;2023-07-22T02:35:31;3.90;;;2.33;;
62580;SDS011;48640;48.770;9.148;2023-07-22T02:37:58;4.82;;;2.20;;
62580;SDS011;48640;48.770;9.148;2023-07-22T02:40:25;4.32;;;2.45;;
62580;SDS011;48640;48.770;9.148;2023-07-22T02:42:52;3.50;;;2.20;;
62580;SDS011;48640;48.770;9.148;2023-07-22T02:45:19;6.38;;;3.15;;
62580;SDS011;48640;48.770;9.148;2023-07-22T02:47:46;4.40;;;2.47;;
62580;SDS011;48640;48.770;9.148;2023-07-22T02:50:14;4.13;;;2.20;;
62580;SDS011;48640;48.770;9.148;2023-07-22T02:52:40;3.78;;;2.25;;
62580;SDS011;48640;48.770;9.148;2023-07-22T02:55:08;4.68;;;2.35;;
62580;SDS011;48640;48.770;9.148;2023-07-22T02:57:36;3.33;;;2.20;;
62580;SDS011;48640;48.770;9.148;2023-07-22T03:00:04;4.10;;;2.30;;
62580;SDS011;48640;48.770;9.148;2023-07-22T03:02:33;4.47;;;2.33;;
62580;SDS011;48640;48.770;9.148;2023-07-22T03:05:00;4.35;;;2.40;;
62580;SDS011;48640;48.770;9.148;2023-07-22T03:07:31;3.40;;;1.85;;
62580;SDS011;48640;48.770;9.148;2023-07-22T03:09:58;4.53;;;2.70;;
62580;SDS011;48640;48.770;9.148;2023-07-22T03:12:25;5.57;;;3.33;;
62580;SDS011;48640;48.770;9.148;2023-07-22T03:14:52;3.35;;;2.40;;
62580;SDS011;48640;48.770;9.148;2023-07-22T03:17:19;4.40;;;2.45;;
62580;SDS011;48640;48.770;9.148;2023-07-22T03:19:46;3.47;;;2.08;;
62580;SDS011;48640;48.770;9.148;2023-07-22T03:22:13;3.10;;;1.92;;
62580;SDS011;48640;48.770;9.148;2023-07-22T03:24:42;3.22;;;2.20;;
62580;SDS011;48640;48.770;9.148;2023-07-22T03:27:09;3.50;;;2.15;;
62580;SDS011;48640;48.770;9.148;2023-07-22T03:29:37;3.92;;;2.20;;
62580;SDS011;48640;48.770;9.148;2023-07-22T03:32:04;3.63;;;2.22;;
62580;SDS011;48640;48.770;9.148;2023-07-22T03:34:32;3.72;;;2.75;;
62580;SDS011;48640;48.770;9.148;2023-07-22T03:36:59;5.63;;;2.30;;
62580;SDS011;48640;48.770;9.148;2023-07-22T03:39:26;3.83;;;2.33;;
62580;SDS011;48640;48.770;9.148;2023-07-22T03:41:54;5.05;;;2.25;;
62580;SDS011;48640;48.770;9.148;2023-07-22T03:44:20;3.65;;;2.45;;
62580;SDS011;48640;48.770;9.148;2023-07-22T03:46:47;7.25;;;2.60;;
62580;SDS011;48640;48.770;9.148;2023-07-22T03:49:14;3.17;;;2.15;;
62580;SDS011;48640;48.770;9.148;2023-07-22T03:51:41;3.55;;;2.10;;
62580;SDS011;48640;48.770;9.148;2023-07-22T03:54:08;3.90;;;2.30;;
62580;SDS011;48640;48.770;9.148;2023-07-22T03:56:34;4.22;;;2.65;;
62580;SDS011;48640;48.770;9.148;2023-07-22T03:59:02;4.00;;;2.35;;
62580;SDS011;48640;48.770;9.148;2023-07-22T04:01:29;3.22;;;2.13;;
62580;SDS011;48640;48.770;9.148;2023-07-22T04:03:56;4.60;;;2.13;;
62580;SDS011;48640;48.770;9.148;2023-07-22T04:06:23;4.22;;;2.17;;
62580;SDS011;48640;48.770;9.148;2023-07-22T04:08:49;4.60;;;2.50;;
62580;SDS011;48640;48.770;9.148;2023-07-22T04:11:17;4.35;;;2.38;;
62580;SDS011;48640;48.770;9.148;2023-07-22T04:13:44;3.70;;;2.22;;
62580;SDS011;48640;48.770;9.148;2023-07-22T04:16:12;5.60;;;2.17;;
62580;SDS011;48640;48.770;9.148;2023-07-22T04:18:39;4.40;;;2.30;;
62580;SDS011;48640;48.770;9.148;2023-07-22T04:21:06;3.95;;;2.28;;
62580;SDS011;48640;48.770;9.148;2023-07-22T04:23:32;3.58;;;2.53;;
62580;SDS011;48640;48.770;9.148;2023-07-22T04:26:01;3.40;;;2.17;;
62580;SDS011;48640;48.770;9.148;2023-07-22T04:28:29;4.38;;;2.30;;
62580;SDS011;48640;48.770;9.148;2023-07-22T04:30:57;3.45;;;2.20;;
62580;SDS011;48640;48.770;9.148;2023-07-22T04:33:26;4.05;;;2.22;;
62580;SDS011;48640;48.770;9.148;2023-07-22T04:35:55;4.03;;;1.88;;
62580;SDS011;48640;48.770;9.148;2023-07-22T04:38:23;3.40;;;2.00;;
62580;SDS011;48640;48.770;9.148;2023-07-22T04:40:50;4.07;;;2.47;;
62580;SDS011;48640;48.770;9.148;2023-07-22T04:43:17;3.40;;;2.13;;
62580;SDS011;48640;48.770;9.148;2023-07-22T04:45:44;3.60;;;2.47;;
62580;SDS011;48640;48.770;9.148;2023-07-22T04:48:13;4.78;;;2.15;;
62580;SDS011;48640;48.770;9.148;2023-07-22T04:50:42;6.38;;;2.42;;
62580;SDS011;48640;48.770;9.148;2023-07-22T04:53:10;4.47;;;2.42;;
62580;SDS011;48640;48.770;9.148;2023-07-22T04:55:38;4.72;;;2.33;;
62580;SDS011;48640;48.770;9.148;2023-07-22T04:58:05;3.85;;;2.28;;
62580;SDS011;48640;48.770;9.148;2023-07-22T05:00:32;4.57;;;2.53;;
62580;SDS011;48640;48.770;9.148;2023-07-22T05:02:59;3.60;;;2.22;;
62580;SDS011;48640;48.770;9.148;2023-07-22T05:05:26;2.70;;;1.70;;
62580;SDS011;48640;48.770;9.148;2023-07-22T05:07:54;3.67;;;2.30;;
62580;SDS011;48640;48.770;9.148;2023-07-22T05:10:22;4.18;;;2.13;;
62580;SDS011;48640;48.770;9.148;2023-07-22T05:12:49;6.30;;;2.72;;
62580;SDS011;48640;48.770;9.148;2023-07-22T05:15:15;6.60;;;2.65;;
62580;SDS011;48640;48.770;9.148;2023-07-22T05:17:42;4.97;;;2.45;;
62580;SDS011;48640;48.770;9.148;2023-07-22T05:20:09;3.78;;;2.40;;
62580;SDS011;48640;48.770;9.148;2023-07-22T05:22:38;4.88;;;2.50;;
62580;SDS011;48640;48.770;9.148;2023-07-22T05:25:07;3.47;;;2.00;;
62580;SDS011;48640;48.770;9.148;2023-07-22T05:27:34;5.72;;;2.33;;
62580;SDS011;48640;48.770;9.148;2023-07-22T05:30:01;3.38;;;2.03;;
62580;SDS011;48640;48.770;9.148;2023-07-22T05:32:28;3.50;;;2.08;;
62580;SDS011;48640;48.770;9.148;2023-07-22T05:34:56;3.92;;;2.28;;
62580;SDS011;48640;48.770;9.148;2023-07-22T05:37:23;4.35;;;2.42;;
62580;SDS011;48640;48.770;9.148;2023-07-22T05:39:49;4.63;;;2.08;;
62580;SDS011;48640;48.770;9.148;2023-07-22T05:42:18;4.55;;;1.88;;
62580;SDS011;48640;48.770;9.148;2023-07-22T05:44:45;5.35;;;2.70;;
62580;SDS011;48640;48.770;9.148;2023-07-22T05:47:12;3.92;;;2.10;;
62580;SDS011;48640;48.770;9.148;2023-07-22T05:49:39;5.72;;;2.85;;
62580;SDS011;48640;48.770;9.148;2023-07-22T05:52:06;3.67;;;2.00;;
62580;SDS011;48640;48.770;9.148;2023-07-22T05:54:33;3.78;;;1.80;;
62580;SDS011;48640;48.770;9.148;2023-07-22T05:57:00;2.78;;;1.90;;
62580;SDS011;48640;48.770;9.148;2023-07-22T05:59:30;3.17;;;1.67;;
62580;SDS011;48640;48.770;9.148;2023-07-22T06:01:57;3.20;;;1.95;;
62580;SDS011;48640;48.770;9.148;2023-07-22T06:04:23;3.75;;;1.90;;
62580;SDS011;48640;48.770;9.148;2023-07-22T06:06:50;3.95;;;1.85;;
62580;SDS011;48640;48.770;9.148;2023-07-22T06:09:17;3.92;;;2.30;;
62580;SDS011;48640;48.770;9.148;2023-07-22T06:11:45;3.63;;;1.73;;
62580;SDS011;48640;48.770;9.148;2023-07-22T06:14:12;3.13;;;1.63;;
62580;SDS011;48640;48.770;9.148;2023-07-22T06:16:40;3.15;;;1.73;;
62580;SDS011;48640;48.770;9.148;2023-07-22T06:19:07;3.30;;;1.70;;
62580;SDS011;48640;48.770;9.148;2023-07-22T06:21:33;3.95;;;2.03;;
62580;SDS011;48640;48.770;9.148;2023-07-22T06:24:00;3.40;;;1.70;;
62580;SDS011;48640;48.770;9.148;2023-07-22T06:26:27;3.55;;;2.25;;
62580;SDS011;48640;48.770;9.148;2023-07-22T06:28:54;3.30;;;2.30;;
62580;SDS011;48640;48.770;9.148;2023-07-22T06:31:20;4.05;;;2.17;;
62580;SDS011;48640;48.770;9.148;2023-07-22T06:33:49;4.05;;;1.80;;
62580;SDS011;48640;48.770;9.148;2023-07-22T06:36:15;3.55;;;1.80;;
62580;SDS011;48640;48.770;9.148;2023-07-22T06:38:42;2.95;;;2.10;;
62580;SDS011;48640;48.770;9.148;2023-07-22T06:41:09;5.18;;;1.92;;
62580;SDS011;48640;48.770;9.148;2023-07-22T06:43:36;3.65;;;2.20;;
62580;SDS011;48640;48.770;9.148;2023-07-22T06:46:03;3.17;;;1.83;;
62580;SDS011;48640;48.770;9.148;2023-07-22T06:48:30;3.38;;;1.80;;
62580;SDS011;48640;48.770;9.148;2023-07-22T06:50:58;3.60;;;1.83;;
62580;SDS011;48640;48.770;9.148;2023-07-22T06:53:25;4.05;;;1.88;;
62580;SDS011;48640;48.770;9.148;2023-07-22T06:55:52;3.65;;;1.98;;
62580;SDS011;48640;48.770;9.148;2023-07-22T06:58:19;3.45;;;1.88;;
62580;SDS011;48640;48.770;9.148;2023-07-22T07:00:47;2.92;;;2.05;;
62580;SDS011;48640;48.770;9.148;2023-07-22T07:03:14;3.72;;;1.92;;
62580;SDS011;48640;48.770;9.148;2023-07-22T07:05:41;5.72;;;2.63;;
62580;SDS011;48640;48.770;9.148;2023-07-22T07:08:09;4.50;;;2.22;;
62580;SDS011;48640;48.770;9.148;2023-07-22T07:10:36;2.75;;;1.52;;
62580;SDS011;48640;48.770;9.148;2023-07-22T07:13:04;4.28;;;1.98;;
62580;SDS011;48640;48.770;9.148;2023-07-22T07:15:31;2.97;;;1.80;;
62580;SDS011;48640;48.770;9.148;2023-07-22T07:17:58;3.40;;;1.92;;
62580;SDS011;48640;48.770;9.148;2023-07-22T07:20:25;3.85;;;1.80;;
62580;SDS011;48640;48.770;9.148;2023-07-22T07:22:51;4.75;;;1.70;;
62580;SDS011;48640;48.770;9.148;2023-07-22T07:25:19;4.38;;;2.03;;
62580;SDS011;48640;48.770;9.148;2023-07-22T07:27:46;3.95;;;1.67;;
62580;SDS011;48640;48.770;9.148;2023-07-22T07:30:13;2.53;;;1.50;;
62580;SDS011;48640;48.770;9.148;2023-07-22T07:32:40;2.78;;;1.60;;
62580;SDS011;48640;48.770;9.148;2023-07-22T07:35:07;3.00;;;1.58;;
62580;SDS011;48640;48.770;9.148;2023-07-22T07:37:35;2.88;;;1.50;;
62580;SDS011;48640;48.770;9.148;2023-07-22T07:40:02;3.97;;;1.80;;
62580;SDS011;48640;48.770;9.148;2023-07-22T07:42:30;2.58;;;1.70;;
62580;SDS011;48640;48.770;9.148;2023-07-22T07:44:57;2.53;;;1.40;;
62580;SDS011;48640;48.770;9.148;2023-07-22T07:47:24;4.00;;;1.88;;
62580;SDS011;48640;48.770;9.148;2023-07-22T07:49:51;2.50;;;1.40;;
62580;SDS011;48640;48.770;9.148;2023-07-22T07:52:18;3.35;;;1.40;;
62580;SDS011;48640;48.770;9.148;2023-07-22T07:54:45;2.38;;;1.25;;
62580;SDS011;48640;48.770;9.148;2023-07-22T07:57:11;5.70;;;1.75;;
62580;SDS011;48640;48.770;9.148;2023-07-22T07:59:39;3.00;;;1.70;;
62580;SDS011;48640;48.770;9.148;2023-07-22T08:02:06;2.42;;;1.65;;
62580;SDS011;48640;48.770;9.148;2023-07-22T08:04:35;2.40;;;1.25;;
62580;SDS011;48640;48.770;9.148;2023-07-22T08:07:02;2.75;;;1.52;;
62580;SDS011;48640;48.770;9.148;2023-07-22T08:09:29;4.97;;;1.80;;
62580;SDS011;48640;48.770;9.148;2023-07-22T08:11:56;2.90;;;1.30;;
62580;SDS011;48640;48.770;9.148;2023-07-22T08:14:23;2.47;;;1.30;;
62580;SDS011;48640;48.770;9.148;2023-07-22T08:16:51;2.15;;;1.23;;
62580;SDS011;48640;48.770;9.148;2023-07-22T08:19:20;2.47;;;1.38;;
62580;SDS011;48640;48.770;9.148;2023-07-22T08:21:46;3.42;;;1.27;;
62580;SDS011;48640;48.770;9.148;2023-07-22T08:24:13;2.35;;;1.30;;
62580;SDS011;48640;48.770;9.148;2023-07-22T08:26:40;2.90;;;1.48;;
62580;SDS011;48640;48.770;9.148;2023-07-22T08:29:07;1.70;;;1.23;;
62580;SDS011;48640;48.770;9.148;2023-07-22T08:31:34;2.47;;;1.13;;
62580;SDS011;48640;48.770;9.148;2023-07-22T08:34:08;2.35;;;1.20;;
62580;SDS011;48640;48.770;9.148;2023-07-22T08:36:39;5.43;;;1.73;;
62580;SDS011;48640;48.770;9.148;2023-07-22T08:39:07;2.33;;;1.15;;
62580;SDS011;48640;48.770;9.148;2023-07-22T08:41:34;2.17;;;1.25;;
62580;SDS011;48640;48.770;9.148;2023-07-22T08:44:02;2.47;;;1.20;;
62580;SDS011;48640;48.770;9.148;2023-07-22T08:46:32;2.47;;;1.30;;
62580;SDS011;48640;48.770;9.148;2023-07-22T08:49:00;2.42;;;1.17;;
62580;SDS011;48640;48.770;9.148;2023-07-22T08:51:29;2.67;;;1.63;;
62580;SDS011;48640;48.770;9.148;2023-07-22T08:53:57;2.17;;;1.42;;
62580;SDS011;48640;48.770;9.148;2023-07-22T08:58:52;2.25;;;1.05;;
62580;SDS011;48640;48.770;9.148;2023-07-22T09:01:20;2.20;;;1.10;;
62580;SDS011;48640;48.770;9.148;2023-07-22T09:03:48;3.22;;;2.05;;
62580;SDS011;48640;48.770;9.148;2023-07-22T09:06:17;2.42;;;1.60;;
62580;SDS011;48640;48.770;9.148;2023-07-22T09:08:45;2.42;;;1.25;;
62580;SDS011;48640;48.770;9.148;2023-07-22T09:11:13;3.22;;;1.33;;
62580;SDS011;48640;48.770;9.148;2023-07-22T09:13:40;2.20;;;1.20;;
62580;SDS011;48640;48.770;9.148;2023-07-22T09:16:10;2.70;;;1.65;;
62580;SDS011;48640;48.770;9.148;2023-07-22T09:18:39;4.22;;;1.30;;
62580;SDS011;48640;48.770;9.148;2023-07-22T09:21:05;1.92;;;1.23;;
62580;SDS011;48640;48.770;9.148;2023-07-22T09:23:33;2.60;;;1.40;;
62580;SDS011;48640;48.770;9.148;2023-07-22T09:26:12;3.22;;;1.45;;
62580;SDS011;48640;48.770;9.148;2023-07-22T09:28:52;2.78;;;1.70;;
62580;SDS011;48640;48.770;9.148;2023-07-22T09:31:20;2.92;;;1.50;;
62580;SDS011;48640;48.770;9.148;2023-07-22T09:33:48;3.30;;;1.80;;
62580;SDS011;48640;48.770;9.148;2023-07-22T09:36:15;2.80;;;1.63;;
62580;SDS011;48640;48.770;9.148;2023-07-22T09:38:43;3.05;;;1.35;;
62580;SDS011;48640;48.770;9.148;2023-07-22T09:41:09;2.20;;;1.15;;
62580;SDS011;48640;48.770;9.148;2023-07-22T09:43:38;2.70;;;1.40;;
62580;SDS011;48640;48.770;9.148;2023-07-22T09:46:06;1.58;;;1.13;;
62580;SDS011;48640;48.770;9.148;2023-07-22T09:48:42;3.10;;;1.58;;
62580;SDS011;48640;48.770;9.148;2023-07-22T09:51:13;1.90;;;1.10;;
62580;SDS011;48640;48.770;9.148;2023-07-22T09:53:44;3.50;;;1.27;;
62580;SDS011;48640;48.770;9.148;2023-07-22T09:56:13;3.33;;;1.27;;
62580;SDS011;48640;48.770;9.148;2023-07-22T09:58:40;1.90;;;1.20;;
62580;SDS011;48640;48.770;9.148;2023-07-22T10:01:11;1.48;;;0.90;;
62580;SDS011;48640;48.770;9.148;2023-07-22T10:03:42;3.13;;;1.50;;
62580;SDS011;48640;48.770;9.148;2023-07-22T10:06:10;3.10;;;1.38;;
62580;SDS011;48640;48.770;9.148;2023-07-22T10:08:38;3.95;;;1.42;;
62580;SDS011;48640;48.770;9.148;2023-07-22T10:11:08;2.75;;;1.23;;
62580;SDS011;48640;48.770;9.148;2023-07-22T10:13:37;2.15;;;1.30;;
62580;SDS011;48640;48.770;9.148;2023-07-22T10:16:04;2.17;;;1.20;;
62580;SDS011;48640;48.770;9.148;2023-07-22T10:18:32;2.72;;;1.45;;
62580;SDS011;48640;48.770;9.148;2023-07-22T10:21:02;2.05;;;1.08;;
62580;SDS011;48640;48.770;9.148;2023-07-22T10:23:29;2.35;;;1.45;;
62580;SDS011;48640;48.770;9.148;2023-07-22T10:25:58;2.40;;;1.30;;
62580;SDS011;48640;48.770;9.148;2023-07-22T10:28:25;2.10;;;1.20;;
62580;SDS011;48640;48.770;9.148;2023-07-22T10:30:54;2.40;;;1.30;;
62580;SDS011;48640;48.770;9.148;2023-07-22T10:36:01;3.67;;;1.40;;
62580;SDS011;48640;48.770;9.148;2023-07-22T10:38:30;3.17;;;1.30;;
62580;SDS011;48640;48.770;9.148;2023-07-22T10:40:56;3.15;;;1.60;;
62580;SDS011;48640;48.770;9.148;2023-07-22T10:43:25;4.68;;;1.30;;
62580;SDS011;48640;48.770;9.148;2023-07-22T10:48:23;2.90;;;1.35;;
62580;SDS011;48640;48.770;9.148;2023-07-22T10:50:52;1.98;;;1.05;;
62580;SDS011;48640;48.770;9.148;2023-07-22T10:53:21;2.27;;;1.27;;
62580;SDS011;48640;48.770;9.148;2023-07-22T10:56:04;2.42;;;1.20;;
62580;SDS011;48640;48.770;9.148;2023-07-22T10:58:33;1.88;;;1.13;;
62580;SDS011;48640;48.770;9.148;2023-07-22T11:01:23;1.83;;;1.10;;
62580;SDS011;48640;48.770;9.148;2023-07-22T11:04:10;2.08;;;1.30;;
62580;SDS011;48640;48.770;9.148;2023-07-22T11:06:54;2.72;;;1.60;;
62580;SDS011;48640;48.770;9.148;2023-07-22T11:09:39;3.63;;;1.10;;
62580;SDS011;48640;48.770;9.148;2023-07-22T11:12:10;2.15;;;1.25;;
62580;SDS011;48640;48.770;9.148;2023-07-22T11:14:40;2.53;;;1.67;;
62580;SDS011;48640;48.770;9.148;2023-07-22T11:17:13;2.33;;;1.13;;
62580;SDS011;48640;48.770;9.148;2023-07-22T11:19:40;2.13;;;1.25;;
62580;SDS011;48640;48.770;9.148;2023-07-22T11:22:07;2.15;;;1.40;;
62580;SDS011;48640;48.770;9.148;2023-07-22T11:24:35;2.15;;;1.20;;
62580;SDS011;48640;48.770;9.148;2023-07-22T11:27:03;2.28;;;1.50;;
62580;SDS011;48640;48.770;9.148;2023-07-22T11:29:31;2.13;;;1.20;;
62580;SDS011;48640;48.770;9.148;2023-07-22T11:31:58;4.20;;;1.92;;
62580;SDS011;48640;48.770;9.148;2023-07-22T11:34:26;3.25;;;1.75;;
62580;SDS011;48640;48.770;9.148;2023-07-22T11:36:54;2.47;;;1.77;;
62580;SDS011;48640;48.770;9.148;2023-07-22T11:39:22;2.42;;;1.13;;
62580;SDS011;48640;48.770;9.148;2023-07-22T11:41:50;2.60;;;1.60;;
62580;SDS011;48640;48.770;9.148;2023-07-22T11:44:18;4.50;;;1.40;;
62580;SDS011;48640;48.770;9.148;2023-07-22T11:46:46;3.20;;;1.55;;
62580;SDS011;48640;48.770;9.148;2023-07-22T11:49:21;3.08;;;1.30;;
62580;SDS011;48640;48.770;9.148;2023-07-22T11:51:54;2.22;;;1.35;;
62580;SDS011;48640;48.770;9.148;2023-07-22T11:54:21;3.20;;;1.23;;
62580;SDS011;48640;48.770;9.148;2023-07-22T11:56:48;3.33;;;1.45;;
62580;SDS011;48640;48.770;9.148;2023-07-22T11:59:15;2.83;;;1.67;;
62580;SDS011;48640;48.770;9.148;2023-07-22T12:01:45;3.15;;;1.67;;
62580;SDS011;48640;48.770;9.148;2023-07-22T12:04:12;3.03;;;1.65;;
62580;SDS011;48640;48.770;9.148;2023-07-22T12:06:41;3.17;;;1.50;;
62580;SDS011;48640;48.770;9.148;2023-07-22T12:09:08;2.00;;;1.38;;
62580;SDS011;48640;48.770;9.148;2023-07-22T12:11:36;3.25;;;1.63;;
62580;SDS011;48640;48.770;9.148;2023-07-22T12:14:09;3.13;;;1.60;;
62580;SDS011;48640;48.770;9.148;2023-07-22T12:16:36;4.55;;;1.85;;
62580;SDS011;48640;48.770;9.148;2023-07-22T12:19:04;2.80;;;1.70;;
62580;SDS011;48640;48.770;9.148;2023-07-22T12:21:32;2.63;;;1.50;;
62580;SDS011;48640;48.770;9.148;2023-07-22T12:24:00;3.20;;;1.40;;
62580;SDS011;48640;48.770;9.148;2023-07-22T12:26:29;3.05;;;1.20;;
62580;SDS011;48640;48.770;9.148;2023-07-22T12:28:56;2.30;;;1.42;;
62580;SDS011;48640;48.770;9.148;2023-07-22T12:31:22;2.53;;;1.48;;
62580;SDS011;48640;48.770;9.148;2023-07-22T12:33:49;3.53;;;1.98;;
62580;SDS011;48640;48.770;9.148;2023-07-22T12:36:16;3.88;;;1.83;;
62580;SDS011;48640;48.770;9.148;2023-07-22T12:38:43;2.95;;;1.45;;
62580;SDS011;48640;48.770;9.148;2023-07-22T12:41:11;4.07;;;1.70;;
62580;SDS011;48640;48.770;9.148;2023-07-22T12:43:38;2.72;;;1.77;;
62580;SDS011;48640;48.770;9.148;2023-07-22T12:46:04;3.33;;;1.65;;
62580;SDS011;48640;48.770;9.148;2023-07-22T12:48:31;4.55;;;1.70;;
62580;SDS011;48640;48.770;9.148;2023-07-22T12:50:58;4.60;;;2.03;;
62580;SDS011;48640;48.770;9.148;2023-07-22T12:53:25;2.97;;;1.55;;
62580;SDS011;48640;48.770;9.148;2023-07-22T12:55:52;2.53;;;1.42;;
62580;SDS011;48640;48.770;9.148;2023-07-22T12:58:20;6.07;;;1.75;;
62580;SDS011;48640;48.770;9.148;2023-07-22T13:00:47;2.40;;;1.90;;
62580;SDS011;48640;48.770;9.148;2023-07-22T13:03:14;3.45;;;1.40;;
62580;SDS011;48640;48.770;9.148;2023-07-22T13:05:41;2.42;;;1.65;;
62580;SDS011;48640;48.770;9.148;2023-07-22T13:08:07;3.65;;;1.90;;
62580;SDS011;48640;48.770;9.148;2023-07-22T13:10:34;2.38;;;1.45;;
62580;SDS011;48640;48.770;9.148;2023-07-22T13:13:03;2.78;;;1.48;;
62580;SDS011;48640;48.770;9.148;2023-07-22T13:15:31;3.13;;;1.83;;
62580;SDS011;48640;48.770;9.148;2023-07-22T13:17:58;2.17;;;1.40;;
62580;SDS011;48640;48.770;9.148;2023-07-22T13:20:25;5.38;;;2.88;;
62580;SDS011;48640;48.770;9.148;2023-07-22T13:22:52;3.33;;;2.13;;
62580;SDS011;48640;48.770;9.148;2023-07-22T13:25:19;3.17;;;2.13;;
62580;SDS011;48640;48.770;9.148;2023-07-22T13:27:46;3.45;;;1.80;;
62580;SDS011;48640;48.770;9.148;2023-07-22T13:30:12;2.85;;;1.42;;
62580;SDS011;48640;48.770;9.148;2023-07-22T13:32:41;2.67;;;1.73;;
62580;SDS011;48640;48.770;9.148;2023-07-22T13:35:07;2.70;;;1.50;;
62580;SDS011;48640;48.770;9.148;2023-07-22T13:37:35;4.90;;;2.88;;
62580;SDS011;48640;48.770;9.148;2023-07-22T13:40:02;3.95;;;2.00;;
62580;SDS011;48640;48.770;9.148;2023-07-22T13:42:34;5.13;;;2.42;;
62580;SDS011;48640;48.770;9.148;2023-07-22T13:45:02;4.18;;;2.08;;
62580;SDS011;48640;48.770;9.148;2023-07-22T13:47:29;3.33;;;2.22;;
62580;SDS011;48640;48.770;9.148;2023-07-22T13:49:57;4.78;;;2.10;;
62580;SDS011;48640;48.770;9.148;2023-07-22T13:52:24;3.60;;;1.90;;
62580;SDS011;48640;48.770;9.148;2023-07-22T13:54:51;3.85;;;3.03;;
62580;SDS011;48640;48.770;9.148;2023-07-22T13:57:18;3.85;;;2.10;;
62580;SDS011;48640;48.770;9.148;2023-07-22T13:59:44;3.92;;;2.08;;
62580;SDS011;48640;48.770;9.148;2023-07-22T14:02:11;2.58;;;1.80;;
62580;SDS011;48640;48.770;9.148;2023-07-22T14:04:38;3.05;;;1.85;;
62580;SDS011;48640;48.770;9.148;2023-07-22T14:07:06;3.13;;;2.03;;
62580;SDS011;48640;48.770;9.148;2023-07-22T14:09:33;4.57;;;1.92;;
62580;SDS011;48640;48.770;9.148;2023-07-22T14:12:00;2.90;;;1.90;;
62580;SDS011;48640;48.770;9.148;2023-07-22T14:14:28;2.50;;;1.50;;
62580;SDS011;48640;48.770;9.148;2023-07-22T14:16:55;3.15;;;2.05;;
62580;SDS011;48640;48.770;9.148;2023-07-22T14:19:23;4.68;;;2.05;;
62580;SDS011;48640;48.770;9.148;2023-07-22T14:21:50;4.05;;;2.10;;
62580;SDS011;48640;48.770;9.148;2023-07-22T14:24:18;2.83;;;2.00;;
62580;SDS011;48640;48.770;9.148;2023-07-22T14:26:45;4.45;;;1.60;;
62580;SDS011;48640;48.770;9.148;2023-07-22T14:29:12;4.20;;;2.13;;
62580;SDS011;48640;48.770;9.148;2023-07-22T14:31:39;3.33;;;2.00;;
62580;SDS011;48640;48.770;9.148;2023-07-22T14:34:08;2.80;;;1.80;;
62580;SDS011;48640;48.770;9.148;2023-07-22T14:36:35;3.22;;;1.92;;
62580;SDS011;48640;48.770;9.148;2023-07-22T14:39:01;2.92;;;1.63;;
62580;SDS011;48640;48.770;9.148;2023-07-22T14:41:30;2.95;;;1.85;;
62580;SDS011;48640;48.770;9.148;2023-07-22T14:43:57;5.00;;;2.00;;
62580;SDS011;48640;48.770;9.148;2023-07-22T14:46:24;3.67;;;1.90;;
62580;SDS011;48640;48.770;9.148;2023-07-22T14:48:50;3.33;;;2.00;;
62580;SDS011;48640;48.770;9.148;2023-07-22T14:51:17;2.90;;;1.90;;
62580;SDS011;48640;48.770;9.148;2023-07-22T14:53:44;3.08;;;1.95;;
62580;SDS011;48640;48.770;9.148;2023-07-22T14:56:11;3.55;;;2.38;;
62580;SDS011;48640;48.770;9.148;2023-07-22T14:58:39;3.75;;;2.10;;